sensor_id;sensor_type;location;lat;lon;timestamp;P1;durP1;ratioP1;P2;durP2;ratioP2
39958;SDS011;25639;53.634;9.880;2023-03-30T00:01:12;47.22;;;27.20;;
39958;SDS011;25639;53.634;9.880;2023-03-30T00:03:41;42.58;;;26.27;;
39958;SDS011;25639;53.634;9.880;2023-03-30T00:06:08;41.88;;;26.10;;
39958;SDS011;25639;53.634;9.880;2023-03-30T00:08:35;45.13;;;26.20;;
39958;SDS011;25639;53.634;9.880;2023-03-30T00:11:05;42.20;;;25.90;;
39958;SDS011;25639;53.634;9.880;2023-03-30T00:13:32;43.22;;;26.58;;
39958;SDS011;25639;53.634;9.880;2023-03-30T00:16:02;44.28;;;26.75;;
39958;SDS011;25639;53.634;9.880;2023-03-30T00:18:28;45.13;;;26.15;;
39958;SDS011;25639;53.634;9.880;2023-03-30T00:20:54;43.47;;;26.33;;
39958;SDS011;25639;53.634;9.880;2023-03-30T00:23:20;44.50;;;25.75;;
39958;SDS011;25639;53.634;9.880;2023-03-30T00:25:46;38.65;;;25.30;;
39958;SDS011;25639;53.634;9.880;2023-03-30T00:28:12;43.72;;;25.35;;
39958;SDS011;25639;53.634;9.880;2023-03-30T00:30:37;42.80;;;25.50;;
39958;SDS011;25639;53.634;9.880;2023-03-30T00:33:03;42.08;;;25.27;;
39958;SDS011;25639;53.634;9.880;2023-03-30T00:35:28;38.22;;;24.92;;
39958;SDS011;25639;53.634;9.880;2023-03-30T00:37:56;42.15;;;24.25;;
39958;SDS011;25639;53.634;9.880;2023-03-30T00:40:25;42.17;;;26.00;;
39958;SDS011;25639;53.634;9.880;2023-03-30T00:42:56;42.72;;;25.90;;
39958;SDS011;25639;53.634;9.880;2023-03-30T00:45:26;44.88;;;25.83;;
39958;SDS011;25639;53.634;9.880;2023-03-30T00:50:27;43.03;;;25.92;;
39958;SDS011;25639;53.634;9.880;2023-03-30T00:52:59;46.55;;;24.42;;
39958;SDS011;25639;53.634;9.880;2023-03-30T00:55:27;46.03;;;25.75;;
39958;SDS011;25639;53.634;9.880;2023-03-30T00:57:55;40.78;;;23.45;;
39958;SDS011;25639;53.634;9.880;2023-03-30T01:00:21;42.05;;;25.25;;
39958;SDS011;25639;53.634;9.880;2023-03-30T01:02:55;46.10;;;24.25;;
39958;SDS011;25639;53.634;9.880;2023-03-30T01:05:23;40.90;;;23.52;;
39958;SDS011;25639;53.634;9.880;2023-03-30T01:07:49;40.22;;;24.75;;
39958;SDS011;25639;53.634;9.880;2023-03-30T01:10:16;35.88;;;22.55;;
39958;SDS011;25639;53.634;9.880;2023-03-30T01:12:42;36.92;;;23.70;;
39958;SDS011;25639;53.634;9.880;2023-03-30T01:15:08;41.28;;;23.23;;
39958;SDS011;25639;53.634;9.880;2023-03-30T01:17:47;38.75;;;23.85;;
39958;SDS011;25639;53.634;9.880;2023-03-30T01:20:33;37.97;;;22.95;;
39958;SDS011;25639;53.634;9.880;2023-03-30T01:23:32;38.70;;;22.25;;
39958;SDS011;25639;53.634;9.880;2023-03-30T01:28:54;39.50;;;22.67;;
39958;SDS011;25639;53.634;9.880;2023-03-30T01:39:59;35.33;;;21.73;;
39958;SDS011;25639;53.634;9.880;2023-03-30T01:42:35;36.70;;;22.73;;
39958;SDS011;25639;53.634;9.880;2023-03-30T01:50:20;37.97;;;22.33;;
39958;SDS011;25639;53.634;9.880;2023-03-30T01:53:02;39.28;;;22.77;;
39958;SDS011;25639;53.634;9.880;2023-03-30T01:58:33;38.08;;;22.77;;
39958;SDS011;25639;53.634;9.880;2023-03-30T02:01:03;40.97;;;22.27;;
39958;SDS011;25639;53.634;9.880;2023-03-30T02:03:31;41.88;;;23.30;;
39958;SDS011;25639;53.634;9.880;2023-03-30T02:06:05;42.47;;;22.58;;
39958;SDS011;25639;53.634;9.880;2023-03-30T02:08:35;42.88;;;23.65;;
39958;SDS011;25639;53.634;9.880;2023-03-30T02:11:03;42.40;;;23.23;;
39958;SDS011;25639;53.634;9.880;2023-03-30T02:13:29;42.20;;;23.05;;
39958;SDS011;25639;53.634;9.880;2023-03-30T02:15:58;39.53;;;22.75;;
39958;SDS011;25639;53.634;9.880;2023-03-30T02:18:26;45.15;;;23.95;;
39958;SDS011;25639;53.634;9.880;2023-03-30T02:20:52;42.67;;;23.20;;
39958;SDS011;25639;53.634;9.880;2023-03-30T02:23:17;42.47;;;22.42;;
39958;SDS011;25639;53.634;9.880;2023-03-30T02:25:47;42.00;;;25.00;;
39958;SDS011;25639;53.634;9.880;2023-03-30T02:28:12;44.38;;;23.83;;
39958;SDS011;25639;53.634;9.880;2023-03-30T02:30:38;42.95;;;23.33;;
39958;SDS011;25639;53.634;9.880;2023-03-30T02:33:07;42.30;;;22.77;;
39958;SDS011;25639;53.634;9.880;2023-03-30T02:52:34;42.33;;;22.05;;
39958;SDS011;25639;53.634;9.880;2023-03-30T02:58:02;39.80;;;22.67;;
39958;SDS011;25639;53.634;9.880;2023-03-30T03:00:39;45.90;;;23.02;;
39958;SDS011;25639;53.634;9.880;2023-03-30T03:03:13;42.28;;;23.23;;
39958;SDS011;25639;53.634;9.880;2023-03-30T03:05:50;38.05;;;22.45;;
39958;SDS011;25639;53.634;9.880;2023-03-30T03:08:18;41.25;;;22.88;;
39958;SDS011;25639;53.634;9.880;2023-03-30T03:10:47;39.90;;;21.27;;
39958;SDS011;25639;53.634;9.880;2023-03-30T03:13:13;41.15;;;22.05;;
39958;SDS011;25639;53.634;9.880;2023-03-30T03:15:40;38.95;;;22.58;;
39958;SDS011;25639;53.634;9.880;2023-03-30T03:18:08;42.90;;;23.83;;
39958;SDS011;25639;53.634;9.880;2023-03-30T03:20:34;38.95;;;21.27;;
39958;SDS011;25639;53.634;9.880;2023-03-30T03:22:59;42.92;;;22.55;;
39958;SDS011;25639;53.634;9.880;2023-03-30T03:25:25;48.60;;;22.30;;
39958;SDS011;25639;53.634;9.880;2023-03-30T03:27:50;40.80;;;22.25;;
39958;SDS011;25639;53.634;9.880;2023-03-30T03:30:16;41.47;;;22.58;;
39958;SDS011;25639;53.634;9.880;2023-03-30T03:32:42;45.65;;;23.33;;
39958;SDS011;25639;53.634;9.880;2023-03-30T03:35:07;40.38;;;22.85;;
39958;SDS011;25639;53.634;9.880;2023-03-30T03:37:33;40.35;;;23.15;;
39958;SDS011;25639;53.634;9.880;2023-03-30T03:39:58;45.90;;;23.98;;
39958;SDS011;25639;53.634;9.880;2023-03-30T03:42:24;43.83;;;24.42;;
39958;SDS011;25639;53.634;9.880;2023-03-30T03:44:49;39.67;;;22.70;;
39958;SDS011;25639;53.634;9.880;2023-03-30T03:47:15;41.25;;;22.88;;
39958;SDS011;25639;53.634;9.880;2023-03-30T03:49:40;44.53;;;22.80;;
39958;SDS011;25639;53.634;9.880;2023-03-30T03:52:06;44.88;;;23.30;;
39958;SDS011;25639;53.634;9.880;2023-03-30T03:54:31;43.17;;;23.23;;
39958;SDS011;25639;53.634;9.880;2023-03-30T03:56:56;43.03;;;22.98;;
39958;SDS011;25639;53.634;9.880;2023-03-30T03:59:22;40.45;;;22.15;;
39958;SDS011;25639;53.634;9.880;2023-03-30T04:01:47;47.55;;;23.92;;
39958;SDS011;25639;53.634;9.880;2023-03-30T04:04:12;46.85;;;22.58;;
39958;SDS011;25639;53.634;9.880;2023-03-30T04:06:37;38.45;;;22.48;;
39958;SDS011;25639;53.634;9.880;2023-03-30T04:09:03;49.03;;;24.23;;
39958;SDS011;25639;53.634;9.880;2023-03-30T04:11:28;40.30;;;22.70;;
39958;SDS011;25639;53.634;9.880;2023-03-30T04:13:53;39.35;;;21.83;;
39958;SDS011;25639;53.634;9.880;2023-03-30T04:16:20;42.38;;;23.42;;
39958;SDS011;25639;53.634;9.880;2023-03-30T04:18:45;42.03;;;22.17;;
39958;SDS011;25639;53.634;9.880;2023-03-30T04:21:10;42.25;;;21.88;;
39958;SDS011;25639;53.634;9.880;2023-03-30T04:23:37;38.67;;;22.10;;
39958;SDS011;25639;53.634;9.880;2023-03-30T04:26:04;39.08;;;21.83;;
39958;SDS011;25639;53.634;9.880;2023-03-30T04:28:32;40.20;;;22.13;;
39958;SDS011;25639;53.634;9.880;2023-03-30T04:30:59;38.42;;;21.13;;
39958;SDS011;25639;53.634;9.880;2023-03-30T04:33:26;41.58;;;21.38;;
39958;SDS011;25639;53.634;9.880;2023-03-30T04:35:51;42.55;;;22.35;;
39958;SDS011;25639;53.634;9.880;2023-03-30T04:38:17;38.72;;;22.13;;
39958;SDS011;25639;53.634;9.880;2023-03-30T04:40:52;36.28;;;20.38;;
39958;SDS011;25639;53.634;9.880;2023-03-30T04:43:19;40.13;;;21.27;;
39958;SDS011;25639;53.634;9.880;2023-03-30T04:45:49;40.65;;;21.02;;
39958;SDS011;25639;53.634;9.880;2023-03-30T04:48:15;44.33;;;20.92;;
39958;SDS011;25639;53.634;9.880;2023-03-30T04:50:41;42.25;;;21.65;;
39958;SDS011;25639;53.634;9.880;2023-03-30T04:53:08;41.08;;;20.65;;
39958;SDS011;25639;53.634;9.880;2023-03-30T04:55:34;34.80;;;19.73;;
39958;SDS011;25639;53.634;9.880;2023-03-30T04:57:59;37.15;;;19.85;;
39958;SDS011;25639;53.634;9.880;2023-03-30T05:00:24;37.70;;;20.55;;
39958;SDS011;25639;53.634;9.880;2023-03-30T05:02:51;37.85;;;20.25;;
39958;SDS011;25639;53.634;9.880;2023-03-30T05:05:16;42.50;;;20.52;;
39958;SDS011;25639;53.634;9.880;2023-03-30T05:07:42;36.33;;;20.08;;
39958;SDS011;25639;53.634;9.880;2023-03-30T05:10:07;35.65;;;19.48;;
39958;SDS011;25639;53.634;9.880;2023-03-30T05:12:32;37.00;;;19.85;;
39958;SDS011;25639;53.634;9.880;2023-03-30T05:14:57;33.25;;;18.95;;
39958;SDS011;25639;53.634;9.880;2023-03-30T05:17:23;35.53;;;18.77;;
39958;SDS011;25639;53.634;9.880;2023-03-30T05:19:48;36.17;;;19.77;;
39958;SDS011;25639;53.634;9.880;2023-03-30T05:22:13;35.65;;;18.50;;
39958;SDS011;25639;53.634;9.880;2023-03-30T05:24:39;34.17;;;19.13;;
39958;SDS011;25639;53.634;9.880;2023-03-30T05:27:04;34.63;;;17.92;;
39958;SDS011;25639;53.634;9.880;2023-03-30T05:29:30;32.58;;;16.77;;
39958;SDS011;25639;53.634;9.880;2023-03-30T05:31:56;29.48;;;15.30;;
39958;SDS011;25639;53.634;9.880;2023-03-30T05:34:21;25.23;;;14.20;;
39958;SDS011;25639;53.634;9.880;2023-03-30T05:36:46;24.25;;;12.95;;
39958;SDS011;25639;53.634;9.880;2023-03-30T05:39:12;27.27;;;13.13;;
39958;SDS011;25639;53.634;9.880;2023-03-30T05:41:37;23.00;;;11.85;;
39958;SDS011;25639;53.634;9.880;2023-03-30T05:44:02;25.00;;;11.50;;
39958;SDS011;25639;53.634;9.880;2023-03-30T05:46:28;23.67;;;11.75;;
39958;SDS011;25639;53.634;9.880;2023-03-30T05:48:54;22.67;;;10.60;;
39958;SDS011;25639;53.634;9.880;2023-03-30T05:51:20;23.83;;;11.32;;
39958;SDS011;25639;53.634;9.880;2023-03-30T05:53:45;23.33;;;10.00;;
39958;SDS011;25639;53.634;9.880;2023-03-30T05:56:11;18.13;;;9.25;;
39958;SDS011;25639;53.634;9.880;2023-03-30T05:58:36;21.00;;;9.63;;
39958;SDS011;25639;53.634;9.880;2023-03-30T06:01:02;18.55;;;9.35;;
39958;SDS011;25639;53.634;9.880;2023-03-30T06:03:29;19.85;;;10.73;;
39958;SDS011;25639;53.634;9.880;2023-03-30T06:05:55;18.23;;;9.75;;
39958;SDS011;25639;53.634;9.880;2023-03-30T06:08:20;19.35;;;10.13;;
39958;SDS011;25639;53.634;9.880;2023-03-30T06:10:52;18.48;;;10.25;;
39958;SDS011;25639;53.634;9.880;2023-03-30T06:13:19;19.35;;;10.18;;
39958;SDS011;25639;53.634;9.880;2023-03-30T06:15:44;18.95;;;10.10;;
39958;SDS011;25639;53.634;9.880;2023-03-30T06:18:10;19.63;;;10.18;;
39958;SDS011;25639;53.634;9.880;2023-03-30T06:20:36;22.50;;;10.90;;
39958;SDS011;25639;53.634;9.880;2023-03-30T06:23:01;21.63;;;10.75;;
39958;SDS011;25639;53.634;9.880;2023-03-30T06:25:27;22.55;;;10.82;;
39958;SDS011;25639;53.634;9.880;2023-03-30T06:27:53;19.60;;;11.15;;
39958;SDS011;25639;53.634;9.880;2023-03-30T06:30:19;25.00;;;13.05;;
39958;SDS011;25639;53.634;9.880;2023-03-30T06:32:45;23.92;;;12.25;;
39958;SDS011;25639;53.634;9.880;2023-03-30T06:35:10;25.13;;;13.45;;
39958;SDS011;25639;53.634;9.880;2023-03-30T06:37:37;23.42;;;13.20;;
39958;SDS011;25639;53.634;9.880;2023-03-30T06:40:03;23.23;;;12.15;;
39958;SDS011;25639;53.634;9.880;2023-03-30T06:42:41;25.00;;;11.80;;
39958;SDS011;25639;53.634;9.880;2023-03-30T06:45:08;20.33;;;11.43;;
39958;SDS011;25639;53.634;9.880;2023-03-30T06:47:35;20.75;;;10.73;;
39958;SDS011;25639;53.634;9.880;2023-03-30T06:50:00;23.38;;;11.30;;
39958;SDS011;25639;53.634;9.880;2023-03-30T06:52:26;21.65;;;10.95;;
39958;SDS011;25639;53.634;9.880;2023-03-30T06:54:51;17.38;;;10.73;;
39958;SDS011;25639;53.634;9.880;2023-03-30T06:57:16;20.63;;;9.75;;
39958;SDS011;25639;53.634;9.880;2023-03-30T06:59:42;19.00;;;10.65;;
39958;SDS011;25639;53.634;9.880;2023-03-30T07:02:11;16.95;;;9.50;;
39958;SDS011;25639;53.634;9.880;2023-03-30T07:04:38;17.38;;;10.13;;
39958;SDS011;25639;53.634;9.880;2023-03-30T07:07:04;16.25;;;9.48;;
39958;SDS011;25639;53.634;9.880;2023-03-30T07:09:29;17.95;;;9.43;;
39958;SDS011;25639;53.634;9.880;2023-03-30T07:11:54;15.95;;;9.10;;
39958;SDS011;25639;53.634;9.880;2023-03-30T07:14:19;15.93;;;10.10;;
39958;SDS011;25639;53.634;9.880;2023-03-30T07:16:45;12.82;;;8.15;;
39958;SDS011;25639;53.634;9.880;2023-03-30T07:19:12;19.92;;;8.68;;
39958;SDS011;25639;53.634;9.880;2023-03-30T07:21:37;15.00;;;8.02;;
39958;SDS011;25639;53.634;9.880;2023-03-30T07:24:03;14.70;;;8.50;;
39958;SDS011;25639;53.634;9.880;2023-03-30T07:26:28;16.75;;;8.40;;
39958;SDS011;25639;53.634;9.880;2023-03-30T07:28:55;17.75;;;8.00;;
39958;SDS011;25639;53.634;9.880;2023-03-30T07:31:20;16.10;;;7.43;;
39958;SDS011;25639;53.634;9.880;2023-03-30T07:33:47;14.52;;;8.18;;
39958;SDS011;25639;53.634;9.880;2023-03-30T07:36:12;13.10;;;7.50;;
39958;SDS011;25639;53.634;9.880;2023-03-30T07:38:38;21.85;;;8.30;;
39958;SDS011;25639;53.634;9.880;2023-03-30T07:41:08;18.73;;;8.05;;
39958;SDS011;25639;53.634;9.880;2023-03-30T07:43:35;18.02;;;7.85;;
39958;SDS011;25639;53.634;9.880;2023-03-30T07:46:01;16.30;;;7.47;;
39958;SDS011;25639;53.634;9.880;2023-03-30T07:48:26;16.42;;;7.47;;
39958;SDS011;25639;53.634;9.880;2023-03-30T07:50:58;16.27;;;7.07;;
39958;SDS011;25639;53.634;9.880;2023-03-30T07:53:25;11.10;;;7.15;;
39958;SDS011;25639;53.634;9.880;2023-03-30T07:55:50;15.73;;;7.15;;
39958;SDS011;25639;53.634;9.880;2023-03-30T07:58:15;18.25;;;7.30;;
39958;SDS011;25639;53.634;9.880;2023-03-30T08:00:41;15.25;;;7.72;;
39958;SDS011;25639;53.634;9.880;2023-03-30T08:03:06;11.32;;;6.97;;
39958;SDS011;25639;53.634;9.880;2023-03-30T08:05:32;22.73;;;7.65;;
39958;SDS011;25639;53.634;9.880;2023-03-30T08:07:57;12.13;;;6.82;;
39958;SDS011;25639;53.634;9.880;2023-03-30T08:10:22;16.75;;;7.10;;
39958;SDS011;25639;53.634;9.880;2023-03-30T08:12:48;11.55;;;6.43;;
39958;SDS011;25639;53.634;9.880;2023-03-30T08:15:13;16.30;;;7.15;;
39958;SDS011;25639;53.634;9.880;2023-03-30T08:17:38;11.27;;;5.72;;
39958;SDS011;25639;53.634;9.880;2023-03-30T08:20:03;12.63;;;5.68;;
39958;SDS011;25639;53.634;9.880;2023-03-30T08:22:34;20.25;;;6.88;;
39958;SDS011;25639;53.634;9.880;2023-03-30T08:25:00;11.95;;;5.07;;
39958;SDS011;25639;53.634;9.880;2023-03-30T08:27:25;11.77;;;5.13;;
39958;SDS011;25639;53.634;9.880;2023-03-30T08:29:50;8.80;;;4.90;;
39958;SDS011;25639;53.634;9.880;2023-03-30T08:32:18;15.48;;;5.30;;
39958;SDS011;25639;53.634;9.880;2023-03-30T08:34:43;14.35;;;4.55;;
39958;SDS011;25639;53.634;9.880;2023-03-30T08:37:08;8.32;;;4.82;;
39958;SDS011;25639;53.634;9.880;2023-03-30T08:39:35;14.00;;;4.40;;
39958;SDS011;25639;53.634;9.880;2023-03-30T08:42:04;12.75;;;4.72;;
39958;SDS011;25639;53.634;9.880;2023-03-30T08:44:36;10.02;;;4.35;;
39958;SDS011;25639;53.634;9.880;2023-03-30T08:47:11;13.07;;;4.50;;
39958;SDS011;25639;53.634;9.880;2023-03-30T08:49:40;13.23;;;4.72;;
39958;SDS011;25639;53.634;9.880;2023-03-30T08:52:09;10.05;;;4.45;;
39958;SDS011;25639;53.634;9.880;2023-03-30T08:54:43;7.43;;;4.20;;
39958;SDS011;25639;53.634;9.880;2023-03-30T09:05:43;12.40;;;4.78;;
39958;SDS011;25639;53.634;9.880;2023-03-30T09:10:52;8.55;;;4.32;;
39958;SDS011;25639;53.634;9.880;2023-03-30T09:13:25;14.50;;;4.20;;
39958;SDS011;25639;53.634;9.880;2023-03-30T09:16:13;12.38;;;4.10;;
39958;SDS011;25639;53.634;9.880;2023-03-30T09:18:45;8.43;;;4.10;;
39958;SDS011;25639;53.634;9.880;2023-03-30T09:21:17;10.57;;;4.38;;
39958;SDS011;25639;53.634;9.880;2023-03-30T09:23:46;11.82;;;4.22;;
39958;SDS011;25639;53.634;9.880;2023-03-30T09:31:32;10.13;;;3.90;;
39958;SDS011;25639;53.634;9.880;2023-03-30T09:39:09;10.00;;;4.53;;
39958;SDS011;25639;53.634;9.880;2023-03-30T09:44:25;14.20;;;5.30;;
39958;SDS011;25639;53.634;9.880;2023-03-30T09:46:59;13.13;;;4.97;;
39958;SDS011;25639;53.634;9.880;2023-03-30T09:49:26;15.35;;;4.90;;
39958;SDS011;25639;53.634;9.880;2023-03-30T09:52:02;14.07;;;4.97;;
39958;SDS011;25639;53.634;9.880;2023-03-30T09:54:33;11.35;;;5.15;;
39958;SDS011;25639;53.634;9.880;2023-03-30T09:57:03;10.45;;;4.78;;
39958;SDS011;25639;53.634;9.880;2023-03-30T09:59:33;14.07;;;5.30;;
39958;SDS011;25639;53.634;9.880;2023-03-30T10:02:09;10.05;;;4.65;;
39958;SDS011;25639;53.634;9.880;2023-03-30T10:07:37;11.55;;;4.53;;
39958;SDS011;25639;53.634;9.880;2023-03-30T10:10:15;9.13;;;3.90;;
39958;SDS011;25639;53.634;9.880;2023-03-30T10:12:50;12.00;;;4.20;;
39958;SDS011;25639;53.634;9.880;2023-03-30T10:15:20;10.75;;;4.10;;
39958;SDS011;25639;53.634;9.880;2023-03-30T10:17:47;4.80;;;2.88;;
39958;SDS011;25639;53.634;9.880;2023-03-30T10:20:22;8.77;;;3.50;;
39958;SDS011;25639;53.634;9.880;2023-03-30T10:23:15;11.70;;;3.42;;
39958;SDS011;25639;53.634;9.880;2023-03-30T10:25:41;8.73;;;3.33;;
39958;SDS011;25639;53.634;9.880;2023-03-30T10:28:09;8.93;;;2.70;;
39958;SDS011;25639;53.634;9.880;2023-03-30T10:30:41;8.93;;;2.90;;
39958;SDS011;25639;53.634;9.880;2023-03-30T10:33:14;7.72;;;2.35;;
39958;SDS011;25639;53.634;9.880;2023-03-30T10:35:40;10.27;;;2.80;;
39958;SDS011;25639;53.634;9.880;2023-03-30T10:38:05;6.60;;;2.35;;
39958;SDS011;25639;53.634;9.880;2023-03-30T10:40:35;8.80;;;2.28;;
39958;SDS011;25639;53.634;9.880;2023-03-30T10:43:04;10.75;;;2.75;;
39958;SDS011;25639;53.634;9.880;2023-03-30T10:46:06;9.40;;;2.40;;
39958;SDS011;25639;53.634;9.880;2023-03-30T10:54:10;12.90;;;2.70;;
39958;SDS011;25639;53.634;9.880;2023-03-30T10:57:00;10.15;;;2.30;;
39958;SDS011;25639;53.634;9.880;2023-03-30T10:59:44;7.93;;;2.25;;
39958;SDS011;25639;53.634;9.880;2023-03-30T11:04:55;7.50;;;2.42;;
39958;SDS011;25639;53.634;9.880;2023-03-30T11:07:38;8.35;;;2.42;;
39958;SDS011;25639;53.634;9.880;2023-03-30T11:10:14;7.28;;;1.98;;
39958;SDS011;25639;53.634;9.880;2023-03-30T11:12:48;6.43;;;2.17;;
39958;SDS011;25639;53.634;9.880;2023-03-30T11:15:27;12.18;;;4.55;;
39958;SDS011;25639;53.634;9.880;2023-03-30T11:18:15;9.98;;;3.10;;
39958;SDS011;25639;53.634;9.880;2023-03-30T11:26:02;5.47;;;1.42;;
39958;SDS011;25639;53.634;9.880;2023-03-30T11:31:13;8.80;;;1.92;;
39958;SDS011;25639;53.634;9.880;2023-03-30T11:33:50;5.82;;;1.50;;
39958;SDS011;25639;53.634;9.880;2023-03-30T11:36:29;11.88;;;1.98;;
39958;SDS011;25639;53.634;9.880;2023-03-30T11:39:03;10.50;;;1.80;;
39958;SDS011;25639;53.634;9.880;2023-03-30T11:42:16;7.07;;;1.73;;
39958;SDS011;25639;53.634;9.880;2023-03-30T11:44:40;9.95;;;1.77;;
39958;SDS011;25639;53.634;9.880;2023-03-30T11:52:24;12.43;;;2.65;;
39958;SDS011;25639;53.634;9.880;2023-03-30T12:10:41;16.38;;;3.05;;
39958;SDS011;25639;53.634;9.880;2023-03-30T12:13:12;11.15;;;2.80;;
39958;SDS011;25639;53.634;9.880;2023-03-30T12:15:50;15.50;;;3.05;;
39958;SDS011;25639;53.634;9.880;2023-03-30T12:20:52;14.32;;;3.00;;
39958;SDS011;25639;53.634;9.880;2023-03-30T12:23:29;16.17;;;3.30;;
39958;SDS011;25639;53.634;9.880;2023-03-30T12:31:18;17.27;;;3.53;;
39958;SDS011;25639;53.634;9.880;2023-03-30T12:39:11;19.20;;;3.45;;
39958;SDS011;25639;53.634;9.880;2023-03-30T12:41:46;13.32;;;2.88;;
39958;SDS011;25639;53.634;9.880;2023-03-30T12:44:32;15.00;;;3.53;;
39958;SDS011;25639;53.634;9.880;2023-03-30T12:47:26;13.77;;;2.67;;
39958;SDS011;25639;53.634;9.880;2023-03-30T12:52:57;12.50;;;3.03;;
39958;SDS011;25639;53.634;9.880;2023-03-30T12:58:13;14.15;;;3.17;;
39958;SDS011;25639;53.634;9.880;2023-03-30T13:03:45;11.80;;;2.80;;
39958;SDS011;25639;53.634;9.880;2023-03-30T13:06:29;15.88;;;2.95;;
39958;SDS011;25639;53.634;9.880;2023-03-30T13:11:43;17.17;;;2.65;;
39958;SDS011;25639;53.634;9.880;2023-03-30T13:14:15;13.75;;;2.30;;
39958;SDS011;25639;53.634;9.880;2023-03-30T13:22:17;13.95;;;2.28;;
39958;SDS011;25639;53.634;9.880;2023-03-30T13:24:52;16.50;;;2.20;;
39958;SDS011;25639;53.634;9.880;2023-03-30T13:27:30;12.68;;;1.90;;
39958;SDS011;25639;53.634;9.880;2023-03-30T13:29:59;11.93;;;2.38;;
39958;SDS011;25639;53.634;9.880;2023-03-30T13:54:19;9.65;;;1.70;;
39958;SDS011;25639;53.634;9.880;2023-03-30T13:56:55;13.77;;;1.90;;
39958;SDS011;25639;53.634;9.880;2023-03-30T13:59:30;14.48;;;2.00;;
39958;SDS011;25639;53.634;9.880;2023-03-30T14:01:57;15.25;;;3.55;;
39958;SDS011;25639;53.634;9.880;2023-03-30T14:04:32;8.95;;;1.65;;
39958;SDS011;25639;53.634;9.880;2023-03-30T14:07:10;8.30;;;1.52;;
39958;SDS011;25639;53.634;9.880;2023-03-30T14:09:40;7.75;;;1.70;;
39958;SDS011;25639;53.634;9.880;2023-03-30T14:12:06;9.80;;;1.50;;
39958;SDS011;25639;53.634;9.880;2023-03-30T14:16:59;10.65;;;1.55;;
39958;SDS011;25639;53.634;9.880;2023-03-30T14:19:31;11.48;;;1.83;;
39958;SDS011;25639;53.634;9.880;2023-03-30T14:22:00;7.72;;;2.10;;
39958;SDS011;25639;53.634;9.880;2023-03-30T14:24:29;9.43;;;1.65;;
39958;SDS011;25639;53.634;9.880;2023-03-30T14:27:12;9.93;;;1.48;;
39958;SDS011;25639;53.634;9.880;2023-03-30T14:29:42;11.43;;;2.15;;
39958;SDS011;25639;53.634;9.880;2023-03-30T14:32:12;12.82;;;1.95;;
39958;SDS011;25639;53.634;9.880;2023-03-30T14:34:39;12.82;;;2.67;;
39958;SDS011;25639;53.634;9.880;2023-03-30T14:37:10;14.05;;;1.98;;
39958;SDS011;25639;53.634;9.880;2023-03-30T14:39:38;11.70;;;2.15;;
39958;SDS011;25639;53.634;9.880;2023-03-30T14:42:19;12.18;;;2.40;;
39958;SDS011;25639;53.634;9.880;2023-03-30T14:44:49;12.75;;;1.88;;
39958;SDS011;25639;53.634;9.880;2023-03-30T14:47:19;13.90;;;2.10;;
39958;SDS011;25639;53.634;9.880;2023-03-30T14:49:47;13.70;;;1.90;;
39958;SDS011;25639;53.634;9.880;2023-03-30T14:52:19;10.02;;;1.80;;
39958;SDS011;25639;53.634;9.880;2023-03-30T14:54:47;10.55;;;2.33;;
39958;SDS011;25639;53.634;9.880;2023-03-30T14:57:15;16.17;;;3.05;;
39958;SDS011;25639;53.634;9.880;2023-03-30T15:00:03;16.48;;;2.53;;
39958;SDS011;25639;53.634;9.880;2023-03-30T15:02:55;10.95;;;2.20;;
39958;SDS011;25639;53.634;9.880;2023-03-30T15:05:24;11.70;;;1.88;;
39958;SDS011;25639;53.634;9.880;2023-03-30T15:07:53;13.10;;;2.00;;
39958;SDS011;25639;53.634;9.880;2023-03-30T15:10:23;9.18;;;1.83;;
39958;SDS011;25639;53.634;9.880;2023-03-30T15:12:57;14.23;;;3.17;;
39958;SDS011;25639;53.634;9.880;2023-03-30T15:15:26;13.25;;;2.53;;
39958;SDS011;25639;53.634;9.880;2023-03-30T15:17:54;9.25;;;2.28;;
39958;SDS011;25639;53.634;9.880;2023-03-30T15:20:21;12.38;;;2.22;;
39958;SDS011;25639;53.634;9.880;2023-03-30T15:22:50;14.45;;;2.58;;
39958;SDS011;25639;53.634;9.880;2023-03-30T15:25:32;18.08;;;2.42;;
39958;SDS011;25639;53.634;9.880;2023-03-30T15:28:07;17.25;;;2.95;;
39958;SDS011;25639;53.634;9.880;2023-03-30T15:30:37;18.48;;;2.83;;
39958;SDS011;25639;53.634;9.880;2023-03-30T15:33:05;12.15;;;2.78;;
39958;SDS011;25639;53.634;9.880;2023-03-30T15:35:35;14.05;;;1.90;;
39958;SDS011;25639;53.634;9.880;2023-03-30T15:38:02;11.45;;;1.95;;
39958;SDS011;25639;53.634;9.880;2023-03-30T15:40:38;15.40;;;1.90;;
39958;SDS011;25639;53.634;9.880;2023-03-30T15:45:47;13.23;;;1.58;;
39958;SDS011;25639;53.634;9.880;2023-03-30T15:48:19;12.10;;;1.92;;
39958;SDS011;25639;53.634;9.880;2023-03-30T15:50:59;12.77;;;2.72;;
39958;SDS011;25639;53.634;9.880;2023-03-30T15:53:39;9.15;;;1.67;;
39958;SDS011;25639;53.634;9.880;2023-03-30T15:56:20;16.42;;;2.90;;
39958;SDS011;25639;53.634;9.880;2023-03-30T15:58:50;23.92;;;3.33;;
39958;SDS011;25639;53.634;9.880;2023-03-30T16:01:16;16.00;;;2.60;;
39958;SDS011;25639;53.634;9.880;2023-03-30T16:04:03;13.55;;;2.85;;
39958;SDS011;25639;53.634;9.880;2023-03-30T16:06:29;15.30;;;2.40;;
39958;SDS011;25639;53.634;9.880;2023-03-30T16:08:54;16.10;;;2.78;;
39958;SDS011;25639;53.634;9.880;2023-03-30T16:11:19;18.95;;;3.75;;
39958;SDS011;25639;53.634;9.880;2023-03-30T16:13:46;13.70;;;2.30;;
39958;SDS011;25639;53.634;9.880;2023-03-30T16:16:13;18.00;;;2.72;;
39958;SDS011;25639;53.634;9.880;2023-03-30T16:18:40;27.92;;;4.20;;
39958;SDS011;25639;53.634;9.880;2023-03-30T16:21:05;16.02;;;3.20;;
39958;SDS011;25639;53.634;9.880;2023-03-30T16:23:31;18.13;;;2.70;;
39958;SDS011;25639;53.634;9.880;2023-03-30T16:25:57;17.58;;;3.15;;
39958;SDS011;25639;53.634;9.880;2023-03-30T16:28:22;18.55;;;3.33;;
39958;SDS011;25639;53.634;9.880;2023-03-30T16:30:49;18.80;;;3.40;;
39958;SDS011;25639;53.634;9.880;2023-03-30T16:33:17;15.82;;;2.72;;
39958;SDS011;25639;53.634;9.880;2023-03-30T16:35:43;21.77;;;3.45;;
39958;SDS011;25639;53.634;9.880;2023-03-30T16:38:14;16.30;;;3.00;;
39958;SDS011;25639;53.634;9.880;2023-03-30T16:40:45;22.48;;;3.80;;
39958;SDS011;25639;53.634;9.880;2023-03-30T16:43:12;21.80;;;3.22;;
39958;SDS011;25639;53.634;9.880;2023-03-30T16:45:37;18.20;;;3.80;;
39958;SDS011;25639;53.634;9.880;2023-03-30T16:48:03;18.05;;;3.28;;
39958;SDS011;25639;53.634;9.880;2023-03-30T16:53:05;20.45;;;3.20;;
39958;SDS011;25639;53.634;9.880;2023-03-30T16:55:31;19.52;;;3.95;;
39958;SDS011;25639;53.634;9.880;2023-03-30T16:57:57;19.42;;;3.33;;
39958;SDS011;25639;53.634;9.880;2023-03-30T17:00:26;18.75;;;2.63;;
39958;SDS011;25639;53.634;9.880;2023-03-30T17:02:54;14.13;;;2.75;;
39958;SDS011;25639;53.634;9.880;2023-03-30T17:05:20;16.40;;;2.97;;
39958;SDS011;25639;53.634;9.880;2023-03-30T17:07:45;19.48;;;3.13;;
39958;SDS011;25639;53.634;9.880;2023-03-30T17:10:21;22.23;;;3.10;;
39958;SDS011;25639;53.634;9.880;2023-03-30T17:12:54;28.98;;;3.78;;
39958;SDS011;25639;53.634;9.880;2023-03-30T17:15:20;16.83;;;3.35;;
39958;SDS011;25639;53.634;9.880;2023-03-30T17:17:46;21.13;;;3.40;;
39958;SDS011;25639;53.634;9.880;2023-03-30T17:20:20;19.75;;;3.88;;
39958;SDS011;25639;53.634;9.880;2023-03-30T17:25:11;25.92;;;3.80;;
39958;SDS011;25639;53.634;9.880;2023-03-30T17:27:36;18.02;;;3.65;;
39958;SDS011;25639;53.634;9.880;2023-03-30T17:30:03;18.50;;;3.20;;
39958;SDS011;25639;53.634;9.880;2023-03-30T17:32:38;17.60;;;2.92;;